Time;durP1;ratioP1;P1;durP2;ratioP2;P2;SDS_P1;SDS_P2;PMS_P1;PMS_P2;Temp;Humidity;BMP_temperature;BMP_pressure;BME280_temperature;BME280_humidity;BME280_pressure;Samples;Min_cycle;Max_cycle;Signal;HPM_P1;HPM_P2
2021/10/01 00:01:16;;;;;;;19.03;12.87;;;9.30;99.90;;;;;;4887100;29;20193;-91
2021/10/01 00:03:41;;;;;;;23.63;15.10;;;9.30;99.90;;;;;;4892600;29;20196;-91
2021/10/01 00:06:07;;;;;;;17.90;12.30;;;9.30;99.90;;;;;;4892543;29;20241;-89
2021/10/01 00:08:33;;;;;;;21.03;12.13;;;9.30;99.90;;;;;;4898561;29;20219;-91
2021/10/01 00:10:59;;;;;;;23.13;12.63;;;9.30;99.90;;;;;;4900686;29;20189;-91
2021/10/01 00:13:26;;;;;;;17.90;11.27;;;9.30;99.90;;;;;;4883306;29;20284;-91
2021/10/01 00:15:52;;;;;;;18.77;11.13;;;9.30;99.90;;;;;;4883577;29;20240;-92
2021/10/01 00:18:18;;;;;;;16.50;11.00;;;9.30;99.90;;;;;;4883181;29;20220;-89
2021/10/01 00:20:44;;;;;;;16.27;11.23;;;9.30;99.90;;;;;;4899924;29;20189;-91
2021/10/01 00:23:10;;;;;;;19.50;11.40;;;;;;;;;;4874602;29;20333;-91
2021/10/01 00:25:36;;;;;;;16.70;11.33;;;9.30;99.90;;;;;;4875362;29;20193;-91
2021/10/01 00:28:02;;;;;;;17.00;11.90;;;9.30;99.90;;;;;;4874994;29;20686;-90
2021/10/01 00:30:27;;;;;;;17.13;12.07;;;9.30;99.90;;;;;;4862281;29;20670;-91
2021/10/01 00:32:53;;;;;;;20.13;12.63;;;9.30;99.90;;;;;;4862839;29;20190;-92
2021/10/01 00:35:20;;;;;;;17.70;12.03;;;9.30;99.90;;;;;;4873655;29;20189;-91
2021/10/01 00:37:46;;;;;;;20.83;13.03;;;9.40;99.90;;;;;;4891056;29;20222;-92
2021/10/01 00:40:12;;;;;;;20.60;13.07;;;9.40;99.90;;;;;;4873885;29;20187;-91
2021/10/01 00:42:38;;;;;;;20.37;12.60;;;9.40;99.90;;;;;;4889425;29;20224;-91
2021/10/01 00:45:04;;;;;;;18.43;12.50;;;9.40;99.90;;;;;;4866471;29;20667;-92
2021/10/01 00:47:30;;;;;;;20.73;13.40;;;9.30;99.90;;;;;;4887853;29;20316;-92
2021/10/01 00:49:56;;;;;;;23.50;13.17;;;9.40;99.90;;;;;;4860189;29;20206;-91
2021/10/01 00:52:22;;;;;;;27.43;14.73;;;9.30;99.90;;;;;;4856917;29;20244;-91
2021/10/01 00:54:48;;;;;;;21.27;14.67;;;9.40;99.90;;;;;;4874409;29;20670;-90
2021/10/01 00:57:16;;;;;;;21.87;14.50;;;9.30;99.90;;;;;;4863537;29;20221;-91
2021/10/01 00:59:42;;;;;;;22.50;13.90;;;9.30;99.90;;;;;;4864295;29;20185;-91
2021/10/01 01:02:08;;;;;;;20.57;13.90;;;9.30;99.90;;;;;;4848709;29;20281;-90
2021/10/01 01:04:34;;;;;;;25.80;12.87;;;9.30;99.90;;;;;;4880409;29;20582;-91
2021/10/01 01:07:10;;;;;;;20.10;12.40;;;9.20;99.90;;;;;;4848733;29;20189;-92
2021/10/01 01:09:59;;;;;;;21.43;12.30;;;9.20;99.90;;;;;;4880445;29;20268;-91
2021/10/01 01:12:39;;;;;;;19.90;12.47;;;9.20;99.90;;;;;;4880443;29;20271;-92
2021/10/01 01:15:27;;;;;;;19.40;11.93;;;9.20;99.90;;;;;;4876713;29;20651;-91
2021/10/01 01:18:10;;;;;;;18.47;11.13;;;9.20;99.90;;;;;;4899321;29;20200;-91
2021/10/01 01:20:42;;;;;;;22.17;12.27;;;9.20;99.90;;;;;;4898968;29;20170;-91
2021/10/01 01:23:41;;;;;;;21.50;12.40;;;9.10;99.90;;;;;;4899053;29;20260;-91
2021/10/01 01:26:13;;;;;;;21.00;12.33;;;9.20;99.90;;;;;;4882118;29;20181;-92
2021/10/01 01:29:01;;;;;;;23.73;12.43;;;9.10;99.90;;;;;;4873139;29;20213;-92
2021/10/01 01:31:41;;;;;;;19.10;11.97;;;9.10;99.90;;;;;;4871098;29;20185;-92
2021/10/01 01:34:08;;;;;;;20.30;12.77;;;9.10;99.90;;;;;;4872932;29;20216;-91
2021/10/01 01:36:34;;;;;;;19.80;12.80;;;9.10;99.90;;;;;;4870296;29;20174;-90
2021/10/01 01:39:02;;;;;;;19.50;12.43;;;9.10;99.90;;;;;;4871713;29;20200;-91
2021/10/01 01:41:30;;;;;;;17.27;11.57;;;9.10;99.90;;;;;;4872983;29;20189;-90
2021/10/01 01:43:56;;;;;;;22.87;13.67;;;;;;;;;;4887259;29;20269;-91
2021/10/01 01:46:23;;;;;;;23.30;13.60;;;9.00;99.90;;;;;;4871150;29;20181;-92
2021/10/01 01:48:50;;;;;;;23.07;13.27;;;9.00;99.90;;;;;;4856855;29;20214;-91
2021/10/01 01:51:17;;;;;;;19.43;13.07;;;9.00;99.90;;;;;;4872504;29;20257;-91
2021/10/01 01:53:45;;;;;;;23.43;13.70;;;8.90;99.90;;;;;;4888040;29;20256;-91
2021/10/01 01:56:11;;;;;;;18.83;12.77;;;8.90;99.90;;;;;;4868923;29;20186;-91
2021/10/01 01:58:38;;;;;;;21.40;13.47;;;8.80;99.90;;;;;;4869503;29;20189;-91
2021/10/01 02:01:06;;;;;;;24.57;14.10;;;8.80;99.90;;;;;;4875226;29;20646;-91
2021/10/01 02:03:33;;;;;;;18.60;12.90;;;8.80;99.90;;;;;;4850898;29;20639;-91
2021/10/01 02:06:01;;;;;;;24.93;13.23;;;8.80;99.90;;;;;;4866581;29;20178;-91
2021/10/01 02:08:27;;;;;;;24.20;13.47;;;8.80;99.90;;;;;;4880279;29;20696;-91
2021/10/01 02:10:54;;;;;;;27.80;15.97;;;8.70;99.90;;;;;;4881872;29;20185;-91
2021/10/01 02:13:21;;;;;;;23.80;14.97;;;8.60;99.90;;;;;;4881443;29;20177;-89
2021/10/01 02:15:52;;;;;;;20.03;13.67;;;8.60;99.90;;;;;;4866311;29;20708;-91
2021/10/01 02:18:21;;;;;;;21.70;14.17;;;8.60;99.90;;;;;;4882149;29;20193;-91
2021/10/01 02:20:48;;;;;;;22.63;13.80;;;8.60;99.90;;;;;;4901788;29;20174;-90
2021/10/01 02:23:14;;;;;;;21.80;14.10;;;8.50;99.90;;;;;;4874580;29;20197;-91
2021/10/01 02:28:39;;;;;;;22.33;13.90;;;8.40;99.90;;;;;;4897996;29;20243;-91
2021/10/01 02:31:15;;;;;;;19.83;13.13;;;8.40;99.90;;;;;;4881519;29;20193;-92
2021/10/01 02:33:44;;;;;;;28.87;14.47;;;8.30;99.90;;;;;;4897967;29;20184;-91
2021/10/01 02:36:10;;;;;;;25.13;15.27;;;8.30;99.90;;;;;;4898317;29;20181;-91
2021/10/01 02:38:37;;;;;;;27.23;15.70;;;8.30;99.90;;;;;;4881462;29;20189;-92
2021/10/01 02:41:03;;;;;;;28.83;15.13;;;8.20;99.90;;;;;;4866178;29;20635;-91
2021/10/01 02:43:29;;;;;;;29.13;15.40;;;8.10;99.90;;;;;;4897986;29;20181;-91
2021/10/01 02:45:57;;;;;;;23.67;15.23;;;8.10;99.90;;;;;;4850919;29;20200;-91
2021/10/01 02:48:23;;;;;;;29.10;17.00;;;;;;;;;;4881670;29;20272;-88
2021/10/01 02:50:56;;;;;;;36.43;18.40;;;8.00;99.90;;;;;;4899506;29;20624;-91
2021/10/01 02:53:29;;;;;;;32.07;17.03;;;8.00;99.90;;;;;;4882452;29;20189;-92
2021/10/01 02:56:12;;;;;;;32.20;17.93;;;7.90;99.90;;;;;;4899646;29;20173;-92
2021/10/01 02:59:03;;;;;;;39.53;17.93;;;7.90;99.90;;;;;;4898140;29;20182;-91
2021/10/01 03:01:30;;;;;;;35.87;20.07;;;7.90;99.90;;;;;;4881115;29;20209;-91
2021/10/01 03:04:04;;;;;;;31.13;16.27;;;7.90;99.90;;;;;;4897615;29;20635;-91
2021/10/01 03:06:33;;;;;;;29.00;16.63;;;7.90;99.90;;;;;;4897860;29;20225;-92
2021/10/01 03:09:01;;;;;;;27.23;16.87;;;7.80;99.90;;;;;;4898167;29;20236;-92
2021/10/01 03:11:30;;;;;;;30.27;17.07;;;7.80;99.90;;;;;;4881649;29;20678;-93
2021/10/01 03:13:57;;;;;;;28.80;15.80;;;7.80;99.90;;;;;;4898440;29;20182;-92
2021/10/01 03:16:24;;;;;;;33.00;16.50;;;7.70;99.90;;;;;;4898171;29;20228;-94
2021/10/01 03:18:51;;;;;;;31.80;17.83;;;7.70;99.90;;;;;;4881409;29;20632;-94
2021/10/01 03:21:19;;;;;;;30.23;16.63;;;7.70;99.90;;;;;;4901827;29;20268;-95
2021/10/01 03:23:47;;;;;;;27.17;16.53;;;7.70;99.90;;;;;;4901786;29;20208;-94
2021/10/01 03:26:14;;;;;;;36.20;17.63;;;7.70;99.90;;;;;;4869980;29;20645;-92
2021/10/01 03:28:41;;;;;;;31.60;16.73;;;7.70;99.90;;;;;;4884405;29;20618;-93
2021/10/01 03:31:07;;;;;;;32.63;18.53;;;7.60;99.90;;;;;;4901526;29;20177;-93
2021/10/01 03:33:33;;;;;;;31.37;16.20;;;7.50;99.90;;;;;;4900912;29;20189;-92
2021/10/01 03:36:00;;;;;;;26.20;15.40;;;7.50;99.90;;;;;;4884274;29;20185;-91
2021/10/01 03:38:26;;;;;;;45.17;19.27;;;;;;;;;;4869257;29;20196;-90
2021/10/01 03:40:53;;;;;;;43.47;19.60;;;;;;;;;;4903329;29;20635;-92
2021/10/01 03:43:24;;;;;;;30.90;18.37;;;;;;;;;;4887049;29;20188;-92
2021/10/01 03:45:50;;;;;;;29.13;17.03;;;7.50;99.90;;;;;;4905196;29;20177;-90
2021/10/01 03:48:15;;;;;;;27.03;15.50;;;7.40;99.90;;;;;;4891374;29;20214;-90
2021/10/01 03:50:41;;;;;;;38.63;20.23;;;7.40;99.90;;;;;;4884987;29;20544;-92
2021/10/01 03:53:08;;;;;;;52.53;25.40;;;;;;;;;;4884350;29;20272;-92
2021/10/01 03:55:34;;;;;;;37.97;20.07;;;;;;;;;;4900651;29;20184;-91
2021/10/01 03:58:00;;;;;;;50.57;21.83;;;;;;;;;;4885357;29;20186;-92
2021/10/01 04:00:26;;;;;;;45.17;21.10;;;;;;;;;;4888152;29;20193;-91
2021/10/01 04:02:54;;;;;;;67.37;27.47;;;;;;;;;;4903535;29;20241;-92
2021/10/01 04:05:20;;;;;;;79.80;28.00;;;;;;;;;;4886720;29;20221;-92
2021/10/01 04:07:46;;;;;;;60.73;24.40;;;;;;;;;;4882668;29;20233;-91
2021/10/01 04:10:13;;;;;;;58.10;25.00;;;;;;;;;;4873317;29;20185;-90
2021/10/01 04:12:39;;;;;;;49.10;21.70;;;;;;;;;;4873635;29;20205;-90
2021/10/01 04:15:07;;;;;;;61.70;21.90;;;7.00;99.90;;;;;;4874505;29;20276;-91
2021/10/01 04:17:33;;;;;;;42.73;21.13;;;;;;;;;;4874449;29;20178;-90
2021/10/01 04:20:00;;;;;;;74.47;22.67;;;;;;;;;;4875196;29;20185;-90
2021/10/01 04:22:26;;;;;;;65.20;21.60;;;6.80;99.90;;;;;;4873072;29;20640;-90
2021/10/01 04:24:52;;;;;;;46.67;20.13;;;6.70;99.90;;;;;;4891108;29;20268;-91
2021/10/01 04:27:18;;;;;;;64.50;19.73;;;;;;;;;;4883289;29;20651;-91
2021/10/01 04:29:44;;;;;;;45.90;17.77;;;;;;;;;;4899548;29;20593;-91
2021/10/01 04:32:11;;;;;;;46.70;18.60;;;;;;;;;;4899273;29;20233;-92
2021/10/01 04:34:54;;;;;;;79.90;32.63;;;;;;;;;;4883624;29;20185;-90
2021/10/01 04:37:20;;;;;;;95.80;37.17;;;;;;;;;;4900501;29;20158;-90
2021/10/01 04:39:46;;;;;;;139.03;50.10;;;;;;;;;;4899456;29;20188;-89
2021/10/01 04:42:12;;;;;;;222.20;71.33;;;;;;;;;;4883196;29;20178;-91
2021/10/01 04:44:38;;;;;;;134.07;44.13;;;;;;;;;;4883241;29;20268;-90
2021/10/01 04:47:09;;;;;;;139.67;49.33;;;6.50;99.90;;;;;;4883436;29;20212;-91
2021/10/01 04:49:35;;;;;;;86.03;33.40;;;;;;;;;;4886779;29;20174;-90
2021/10/01 04:52:04;;;;;;;48.67;18.43;;;6.60;99.90;;;;;;4866764;29;20326;-92
2021/10/01 04:54:37;;;;;;;45.30;10.90;;;6.60;99.90;;;;;;4873591;29;20250;-89
2021/10/01 04:57:03;;;;;;;30.47;11.47;;;;;;;;;;4848697;29;20182;-89
2021/10/01 04:59:29;;;;;;;27.03;11.30;;;;;;;;;;4865902;29;20186;-90
2021/10/01 05:01:55;;;;;;;40.30;15.33;;;;;;;;;;4864409;29;20197;-90
2021/10/01 05:04:22;;;;;;;39.50;13.10;;;8.30;99.90;;;;;;4883551;29;20275;-90
2021/10/01 05:06:48;;;;;;;41.00;12.57;;;6.60;99.90;;;;;;4882085;29;20193;-88
2021/10/01 05:09:14;;;;;;;39.73;14.00;;;;;;;;;;4898789;29;20227;-88
2021/10/01 05:11:40;;;;;;;71.27;16.07;;;6.80;99.90;;;;;;4882188;29;20211;-87
2021/10/01 05:14:05;;;;;;;54.10;14.13;;;6.90;99.90;;;;;;4866299;29;20635;-88
2021/10/01 05:16:31;;;;;;;63.23;14.17;;;;;;;;;;4873498;29;20233;-88
2021/10/01 05:18:57;;;;;;;81.43;14.90;;;7.00;99.90;;;;;;4870629;29;20190;-86
2021/10/01 05:21:23;;;;;;;48.23;13.33;;;7.10;99.90;;;;;;4855699;29;20182;-87
2021/10/01 05:23:48;;;;;;;56.07;15.63;;;7.10;99.90;;;;;;4858066;29;20189;-89
2021/10/01 05:26:14;;;;;;;66.43;16.97;;;7.20;99.90;;;;;;4859479;29;20202;-87
2021/10/01 05:28:40;;;;;;;95.53;16.20;;;;;;;;;;4891659;29;20244;-89
2021/10/01 05:31:06;;;;;;;61.70;13.10;;;7.30;99.90;;;;;;4874063;29;20194;-87
2021/10/01 05:33:33;;;;;;;53.40;13.33;;;7.30;99.90;;;;;;4857081;29;20189;-87
2021/10/01 05:36:01;;;;;;;90.30;15.10;;;7.30;99.90;;;;;;4879616;29;20520;-89
2021/10/01 05:38:29;;;;;;;79.70;15.93;;;;;;;;;;4887099;29;20256;-89
2021/10/01 05:40:56;;;;;;;76.47;14.07;;;;;;;;;;4872055;29;20190;-88
2021/10/01 05:43:25;;;;;;;127.23;14.70;;;;;;;;;;4867472;29;20188;-87
2021/10/01 05:45:53;;;;;;;57.77;11.10;;;7.50;99.90;;;;;;4867120;29;20280;-89
2021/10/01 05:48:20;;;;;;;68.37;10.67;;;7.60;99.90;;;;;;4867234;29;20216;-88
2021/10/01 05:50:53;;;;;;;71.90;10.73;;;;;;;;;;4870203;29;20289;-87
2021/10/01 05:53:38;;;;;;;59.30;10.47;;;;;;;;;;4876703;29;20218;-88
2021/10/01 05:56:07;;;;;;;82.40;11.00;;;7.70;99.90;;;;;;4882281;29;20181;-89
2021/10/01 05:58:35;;;;;;;95.77;11.13;;;7.70;99.90;;;;;;4870356;29;20271;-89
2021/10/01 06:01:01;;;;;;;76.10;11.53;;;;;;;;;;4865964;29;20186;-87
2021/10/01 06:03:27;;;;;;;67.07;13.23;;;7.80;99.90;;;;;;4863917;29;20209;-88
2021/10/01 06:05:54;;;;;;;76.77;14.63;;;;;;;;;;4862693;29;20186;-88
2021/10/01 06:08:20;;;;;;;52.93;16.20;;;;;;;;;;4863026;29;20613;-88
2021/10/01 06:10:46;;;;;;;46.60;15.83;;;;;;;;;;4861923;29;20197;-88
2021/10/01 06:13:12;;;;;;;70.80;15.10;;;;;;;;;;4867006;29;20185;-89
2021/10/01 06:15:38;;;;;;;67.20;16.57;;;;;;;;;;4887528;29;20289;-89
2021/10/01 06:18:04;;;;;;;98.17;16.50;;;;;;;;;;4870553;29;20703;-89
2021/10/01 06:20:30;;;;;;;68.40;15.63;;;;;;;;;;4894272;29;20268;-89
2021/10/01 06:22:56;;;;;;;68.00;15.63;;;;;;;;;;4891346;29;20189;-89
2021/10/01 06:25:22;;;;;;;51.37;15.97;;;;;;;;;;4874018;29;20253;-88
2021/10/01 06:27:49;;;;;;;69.80;15.13;;;8.20;99.90;;;;;;4874304;29;20296;-89
2021/10/01 06:30:16;;;;;;;54.07;14.37;;;8.20;99.90;;;;;;4875230;29;20185;-89
2021/10/01 06:32:42;;;;;;;64.07;14.73;;;;;;;;;;4866474;29;20189;-91
2021/10/01 06:35:09;;;;;;;58.73;14.70;;;8.20;99.90;;;;;;4875149;29;20860;-88
2021/10/01 06:37:35;;;;;;;54.40;15.17;;;;;;;;;;4889813;29;20277;-89
2021/10/01 06:40:01;;;;;;;66.43;14.73;;;;;;;;;;4875679;29;20183;-89
2021/10/01 06:42:27;;;;;;;70.80;16.60;;;;;;;;;;4873891;29;20248;-91
2021/10/01 06:44:55;;;;;;;55.87;16.40;;;;;;;;;;4887277;29;20196;-89
2021/10/01 06:47:33;;;;;;;64.93;16.37;;;;;;;;;;4889815;29;20237;-89
2021/10/01 08:19:28;;;;;;;35.73;15.40;;;9.40;99.90;;;;;;4891187;29;20185;-89
2021/10/01 08:21:58;;;;;;;19.70;11.73;;;9.70;99.90;;;;;;4891217;29;20265;-87
2021/10/01 08:24:25;;;;;;;18.13;11.00;;;9.50;99.90;;;;;;4876128;29;20173;-89
2021/10/01 08:26:51;;;;;;;27.13;13.57;;;7.60;99.90;;;;;;4875731;29;20197;-89
2021/10/01 08:29:18;;;;;;;17.03;9.57;;;;;;;;;;4873696;29;20217;-89
2021/10/01 08:31:44;;;;;;;26.07;12.70;;;;;;;;;;4884259;29;20260;-88
2021/10/01 08:34:10;;;;;;;16.97;9.70;;;;;;;;;;4864972;29;20198;-88
2021/10/01 08:36:36;;;;;;;18.17;9.57;;;;;;;;;;4866662;29;20225;-88
2021/10/01 08:39:04;;;;;;;18.57;10.73;;;9.40;99.90;;;;;;4890554;29;20213;-89
2021/10/01 08:41:30;;;;;;;21.60;12.00;;;;;;;;;;4873600;29;20182;-87
2021/10/01 08:43:57;;;;;;;20.73;11.83;;;9.50;99.90;;;;;;4889653;29;20210;-88
2021/10/01 08:46:24;;;;;;;21.33;12.57;;;9.70;99.90;;;;;;4889581;29;21493;-87
2021/10/01 08:48:50;;;;;;;20.23;12.90;;;;;;;;;;4870908;29;20306;-88
2021/10/01 08:51:17;;;;;;;17.03;11.47;;;;;;;;;;4873477;29;20559;-88
2021/10/01 08:53:43;;;;;;;19.63;11.20;;;;;;;;;;4869041;29;20210;-88
2021/10/01 08:56:09;;;;;;;12.97;8.10;;;;;;;;;;4862938;29;20193;-88
2021/10/01 08:58:35;;;;;;;10.07;7.37;;;;;;;;;;4880392;29;20190;-87
2021/10/01 09:01:02;;;;;;;11.27;7.33;;;10.20;99.90;;;;;;4863085;29;20211;-88
2021/10/01 09:03:31;;;;;;;11.20;6.10;;;10.30;99.90;;;;;;4879987;29;20182;-87
2021/10/01 09:05:57;;;;;;;11.40;7.10;;;10.40;99.90;;;;;;4863637;29;20281;-88
2021/10/01 09:08:24;;;;;;;8.10;6.50;;;10.50;99.90;;;;;;4863340;29;20680;-88
2021/10/01 09:11:05;;;;;;;13.67;8.17;;;10.50;99.90;;;;;;4863441;29;20277;-86
2021/10/01 09:13:34;;;;;;;10.63;7.67;;;10.60;99.90;;;;;;4863245;29;20184;-88
2021/10/01 09:16:05;;;;;;;10.20;6.23;;;10.60;99.90;;;;;;4862914;29;20262;-89
2021/10/01 09:18:34;;;;;;;7.43;5.50;;;10.90;99.90;;;;;;4879080;29;20222;-88
2021/10/01 09:21:13;;;;;;;9.70;6.00;;;10.70;99.90;;;;;;4865319;29;20230;-88
2021/10/01 09:24:03;;;;;;;9.93;6.47;;;10.80;99.90;;;;;;4863924;29;20185;-91
2021/10/01 09:26:33;;;;;;;8.93;6.40;;;11.20;99.90;;;;;;4871513;29;20216;-89
2021/10/01 09:29:11;;;;;;;21.07;8.83;;;10.90;99.90;;;;;;4886030;29;20257;-90
2021/10/01 09:31:49;;;;;;;14.23;7.53;;;11.10;99.90;;;;;;4880312;29;20204;-88
2021/10/01 09:34:24;;;;;;;14.47;7.00;;;11.10;99.90;;;;;;4880501;29;20220;-88
2021/10/01 09:37:14;;;;;;;9.53;7.17;;;10.40;99.90;;;;;;4877082;29;20180;-89
2021/10/01 09:39:45;;;;;;;10.20;6.43;;;11.50;99.90;;;;;;4885051;29;20200;-88
2021/10/01 09:42:20;;;;;;;8.70;6.23;;;11.70;99.90;;;;;;4873848;29;20325;-90
2021/10/01 09:45:05;;;;;;;13.75;7.35;;;11.80;99.90;;;;;;4873783;29;20237;-89
2021/10/01 09:47:33;;;;;;;8.50;5.95;;;11.80;99.90;;;;;;4872748;29;20303;-90
2021/10/01 09:50:08;;;;;;;9.27;5.57;;;11.80;99.90;;;;;;4873755;29;20183;-88
2021/10/01 09:52:56;;;;;;;8.85;5.53;;;11.80;99.90;;;;;;4879271;29;20185;-88
2021/10/01 09:55:42;;;;;;;6.63;5.25;;;11.70;99.90;;;;;;4881601;29;20181;-89
2021/10/01 09:58:11;;;;;;;7.77;5.57;;;9.60;99.90;;;;;;4874394;29;20181;-89
2021/10/01 10:00:53;;;;;;;8.00;5.07;;;11.60;99.90;;;;;;4872227;29;20236;-87
2021/10/01 10:03:22;;;;;;;6.88;5.20;;;11.60;99.90;;;;;;4888892;29;20185;-87
2021/10/01 10:06:06;;;;;;;13.38;5.43;;;11.50;99.90;;;;;;4870437;29;20216;-90
2021/10/01 10:08:37;;;;;;;7.32;5.50;;;11.60;99.90;;;;;;4872118;29;20327;-91
2021/10/01 10:11:07;;;;;;;7.78;5.70;;;11.40;99.90;;;;;;4867739;29;20192;-89
2021/10/01 10:13:36;;;;;;;11.80;5.75;;;12.00;99.90;;;;;;4870631;29;20221;-89
2021/10/01 10:16:07;;;;;;;10.37;5.93;;;11.60;99.90;;;;;;4872106;29;20229;-90
2021/10/01 10:18:33;;;;;;;13.05;6.60;;;11.60;99.90;;;;;;4876789;29;20186;-90
2021/10/01 10:20:59;;;;;;;10.07;6.33;;;;;;;;;;4871040;29;20186;-90
2021/10/01 10:23:25;;;;;;;7.97;5.40;;;11.70;99.90;;;;;;4862231;29;20285;-87
2021/10/01 10:25:50;;;;;;;8.20;5.45;;;12.00;99.90;;;;;;4871329;29;20264;-90
2021/10/01 10:28:16;;;;;;;7.18;5.38;;;12.20;99.90;;;;;;4897144;29;20685;-88
2021/10/01 10:30:42;;;;;;;5.55;4.65;;;12.50;99.90;;;;;;4883430;29;20193;-88
2021/10/01 10:33:40;;;;;;;6.85;4.60;;;12.90;99.90;;;;;;4900664;29;20185;-89
2021/10/01 10:36:26;;;;;;;7.28;3.95;;;13.20;99.90;;;;;;4875490;29;20189;-89
2021/10/01 10:38:53;;;;;;;7.72;3.90;;;13.50;99.90;;;;;;4873788;29;20212;-89
2021/10/01 10:41:27;;;;;;;5.18;4.07;;;13.60;99.90;;;;;;4857788;29;20185;-90
2021/10/01 10:43:53;;;;;;;7.10;4.93;;;13.70;99.90;;;;;;4868870;29;20185;-87
2021/10/01 10:46:37;;;;;;;7.68;4.43;;;14.00;99.90;;;;;;4873231;29;20188;-88
2021/10/01 10:52:01;;;;;;;7.10;4.20;;;14.30;99.90;;;;;;4888713;29;20324;-88
2021/10/01 10:54:29;;;;;;;4.75;3.58;;;14.40;99.90;;;;;;4872772;29;20655;-87
2021/10/01 10:57:17;;;;;;;4.10;3.47;;;14.50;99.90;;;;;;4871836;29;20182;-88
2021/10/01 10:59:46;;;;;;;7.95;3.80;;;14.10;99.90;;;;;;4896151;29;20272;-88
2021/10/01 11:02:43;;;;;;;5.07;3.63;;;13.80;99.90;;;;;;4874680;29;20181;-87
2021/10/01 11:05:28;;;;;;;4.63;3.55;;;13.70;99.90;;;;;;4889613;29;20218;-87
2021/10/01 11:07:58;;;;;;;7.15;4.03;;;13.70;99.90;;;;;;4897333;29;20217;-87
2021/10/01 11:10:34;;;;;;;7.35;3.95;;;13.70;99.90;;;;;;4905505;29;20300;-88
2021/10/01 11:13:18;;;;;;;5.07;3.85;;;13.70;99.90;;;;;;4890422;29;20186;-87
2021/10/01 11:16:09;;;;;;;5.65;3.95;;;13.70;99.90;;;;;;4872087;29;20237;-87
2021/10/01 11:18:44;;;;;;;5.78;4.20;;;13.80;99.90;;;;;;4893775;29;20213;-88
2021/10/01 11:21:26;;;;;;;6.15;3.72;;;13.80;99.90;;;;;;4874410;29;20178;-88
2021/10/01 11:24:00;;;;;;;5.70;3.78;;;13.90;99.90;;;;;;4864988;29;20651;-87
2021/10/01 11:26:27;;;;;;;5.60;4.18;;;14.10;99.90;;;;;;4864237;29;20272;-87
2021/10/01 11:28:54;;;;;;;6.93;4.50;;;14.10;99.90;;;;;;4864784;29;20214;-87
2021/10/01 11:31:19;;;;;;;9.13;4.30;;;14.00;99.90;;;;;;4862115;29;20197;-88
2021/10/01 11:33:50;;;;;;;8.05;3.97;;;14.00;99.90;;;;;;4883306;29;20199;-88
2021/10/01 11:36:16;;;;;;;6.65;4.45;;;14.10;99.90;;;;;;4900338;29;20182;-86
2021/10/01 11:38:47;;;;;;;14.35;7.57;;;14.30;99.90;;;;;;4887093;29;20241;-86
2021/10/01 11:41:15;;;;;;;9.50;5.63;;;14.30;99.90;;;;;;4890824;29;20245;-88
2021/10/01 11:43:45;;;;;;;6.60;4.38;;;14.30;99.90;;;;;;4889474;29;20208;-86
2021/10/01 11:46:12;;;;;;;9.40;4.93;;;14.40;99.90;;;;;;4856010;29;20622;-87
2021/10/01 11:48:38;;;;;;;4.53;3.72;;;14.40;99.90;;;;;;4869646;29;20232;-86
2021/10/01 11:51:11;;;;;;;4.82;3.33;;;14.60;99.90;;;;;;4867638;29;20220;-86
2021/10/01 11:53:37;;;;;;;4.95;3.08;;;14.60;99.90;;;;;;4895550;29;21008;-85
2021/10/01 11:56:07;;;;;;;4.65;2.97;;;14.50;99.90;;;;;;4899374;29;20635;-86
2021/10/01 11:58:36;;;;;;;4.72;3.03;;;14.50;99.90;;;;;;4900326;29;20189;-87
2021/10/01 12:01:09;;;;;;;5.85;2.80;;;14.50;99.90;;;;;;4883719;29;20185;-87
2021/10/01 12:03:35;;;;;;;11.57;3.40;;;14.50;99.90;;;;;;4883324;29;20646;-87
2021/10/01 12:06:00;;;;;;;3.63;2.90;;;14.40;99.90;;;;;;4884753;29;20181;-87
2021/10/01 12:08:29;;;;;;;3.40;2.50;;;14.40;99.90;;;;;;4890414;29;20240;-86
2021/10/01 12:10:57;;;;;;;2.42;2.08;;;14.40;99.90;;;;;;4906175;29;20181;-87
2021/10/01 12:13:27;;;;;;;2.90;2.60;;;14.30;99.90;;;;;;4890736;29;20181;-87
2021/10/01 12:15:54;;;;;;;7.82;3.50;;;14.30;99.90;;;;;;4898470;29;20251;-87
2021/10/01 12:18:36;;;;;;;4.10;3.25;;;14.30;99.90;;;;;;4898295;29;20177;-87
2021/10/01 12:21:09;;;;;;;4.53;2.28;;;14.40;99.90;;;;;;4898687;29;20173;-89
2021/10/01 12:23:44;;;;;;;3.15;2.47;;;14.40;99.90;;;;;;4882510;29;20181;-87
2021/10/01 12:26:27;;;;;;;4.43;2.78;;;14.50;99.90;;;;;;4900037;29;20642;-87
2021/10/01 12:29:01;;;;;;;3.58;2.70;;;14.60;99.90;;;;;;4900165;29;20208;-87
2021/10/01 12:31:29;;;;;;;4.55;3.17;;;14.60;99.90;;;;;;4883909;29;20682;-86
2021/10/01 12:34:00;;;;;;;4.88;3.80;;;14.40;99.90;;;;;;4884461;29;20201;-87
2021/10/01 12:36:27;;;;;;;4.07;3.42;;;14.30;99.90;;;;;;4900259;29;20193;-87
2021/10/01 12:38:55;;;;;;;4.60;3.42;;;14.20;99.90;;;;;;4884596;29;20185;-87
2021/10/01 12:41:21;;;;;;;3.78;2.83;;;14.20;99.90;;;;;;4884378;29;20596;-87
2021/10/01 12:43:59;;;;;;;3.78;2.63;;;14.30;99.90;;;;;;4899788;29;20178;-88
2021/10/01 12:46:35;;;;;;;4.43;3.25;;;14.20;99.90;;;;;;4883770;29;20238;-86
2021/10/01 12:49:33;;;;;;;5.30;3.33;;;14.20;99.90;;;;;;4902951;29;20681;-86
2021/10/01 12:52:13;;;;;;;6.97;3.75;;;14.20;99.90;;;;;;4859604;29;20197;-86
2021/10/01 12:54:44;;;;;;;6.03;3.45;;;14.20;99.90;;;;;;4900491;29;20172;-85
2021/10/01 12:57:29;;;;;;;4.38;3.30;;;14.10;99.90;;;;;;4883871;29;20632;-87
2021/10/01 12:59:58;;;;;;;4.50;2.83;;;14.10;99.90;;;;;;4902992;29;20189;-86
2021/10/01 13:02:34;;;;;;;7.90;3.65;;;14.00;99.90;;;;;;4893144;29;20181;-88
2021/10/01 13:05:15;;;;;;;7.32;3.85;;;14.00;99.90;;;;;;4901315;29;20177;-86
2021/10/01 13:07:50;;;;;;;5.00;3.22;;;14.00;99.90;;;;;;4900010;29;20165;-86
2021/10/01 13:10:20;;;;;;;3.65;3.08;;;14.00;99.90;;;;;;4884399;29;20199;-86
2021/10/01 13:13:02;;;;;;;4.57;3.40;;;14.00;99.90;;;;;;4901048;29;20209;-86
2021/10/01 13:15:38;;;;;;;4.75;3.45;;;14.00;99.90;;;;;;4883849;29;20241;-87
2021/10/01 13:21:01;;;;;;;3.92;2.58;;;14.10;99.90;;;;;;4898848;29;20177;-88
2021/10/01 13:23:47;;;;;;;4.13;2.83;;;14.10;99.90;;;;;;4898903;29;20191;-86
2021/10/01 13:26:17;;;;;;;8.93;2.60;;;14.10;99.90;;;;;;4882130;29;20215;-87
2021/10/01 13:28:48;;;;;;;3.95;2.83;;;14.10;99.90;;;;;;4899255;29;20201;-88
2021/10/01 13:31:16;;;;;;;4.68;3.10;;;14.20;99.90;;;;;;4895123;29;20196;-86
2021/10/01 13:33:42;;;;;;;3.15;2.70;;;14.20;99.90;;;;;;4882018;29;20189;-87
2021/10/01 13:36:08;;;;;;;6.30;3.88;;;14.20;99.90;;;;;;4887704;29;20194;-88
2021/10/01 13:38:39;;;;;;;4.53;2.45;;;14.30;99.90;;;;;;4892466;29;20181;-88
2021/10/01 13:41:07;;;;;;;8.55;2.90;;;14.40;99.90;;;;;;4865303;29;20214;-87
2021/10/01 13:43:36;;;;;;;6.35;2.72;;;14.40;99.90;;;;;;4885859;29;20280;-85
2021/10/01 13:46:03;;;;;;;9.73;2.78;;;14.40;99.90;;;;;;4871076;29;20179;-88
2021/10/01 13:48:30;;;;;;;7.82;3.95;;;14.40;99.90;;;;;;4872618;29;20237;-87
2021/10/01 13:50:56;;;;;;;7.65;4.00;;;14.40;99.90;;;;;;4867463;29;20194;-86
2021/10/01 13:53:23;;;;;;;5.57;2.97;;;14.40;99.90;;;;;;4879773;29;20182;-86
2021/10/01 13:55:49;;;;;;;9.25;3.95;;;14.40;99.90;;;;;;4880508;29;20264;-86
2021/10/01 13:58:15;;;;;;;8.25;3.53;;;14.40;99.90;;;;;;4876328;29;20217;-86
2021/10/01 14:00:41;;;;;;;8.35;3.70;;;14.30;99.90;;;;;;4899390;29;20185;-86
2021/10/01 14:03:07;;;;;;;8.35;2.97;;;14.30;99.90;;;;;;4882542;29;20252;-86
2021/10/01 14:05:33;;;;;;;7.70;3.40;;;14.20;99.90;;;;;;4899184;29;20611;-86
2021/10/01 14:07:59;;;;;;;2.75;2.05;;;14.10;99.90;;;;;;4875116;29;20216;-87
2021/10/01 14:10:28;;;;;;;3.83;2.00;;;14.10;99.90;;;;;;4857631;29;20396;-88
2021/10/01 14:12:54;;;;;;;4.03;2.50;;;14.00;99.90;;;;;;4872557;29;20191;-87
2021/10/01 14:15:21;;;;;;;5.85;2.78;;;14.00;99.90;;;;;;4873633;29;20194;-86
2021/10/01 14:17:48;;;;;;;6.97;3.28;;;13.90;99.90;;;;;;4869772;29;20691;-86
2021/10/01 14:20:17;;;;;;;5.45;2.78;;;13.90;99.90;;;;;;4870114;29;20194;-87
2021/10/01 14:22:44;;;;;;;5.50;3.13;;;13.90;99.90;;;;;;4885829;29;20189;-85
2021/10/01 14:25:11;;;;;;;7.47;3.42;;;13.90;99.90;;;;;;4870320;29;20182;-87
2021/10/01 14:27:37;;;;;;;6.13;4.20;;;13.80;99.90;;;;;;4870707;29;20277;-88
2021/10/01 14:30:09;;;;;;;6.10;4.35;;;13.80;99.90;;;;;;4876447;29;20660;-85
2021/10/01 14:32:35;;;;;;;5.35;3.40;;;13.80;99.90;;;;;;4891725;29;20195;-87
2021/10/01 14:35:01;;;;;;;4.88;3.38;;;13.80;99.90;;;;;;4873128;29;20189;-87
2021/10/01 14:37:27;;;;;;;6.85;3.33;;;13.40;99.90;;;;;;4865029;29;20185;-87
2021/10/01 14:39:53;;;;;;;8.10;4.07;;;13.80;99.90;;;;;;4886135;29;20189;-87
2021/10/01 14:42:20;;;;;;;9.48;4.97;;;;;;;;;;4872377;29;20197;-86
2021/10/01 14:44:46;;;;;;;12.23;5.15;;;13.70;99.90;;;;;;4868436;29;20237;-85
2021/10/01 14:47:12;;;;;;;5.38;3.65;;;13.60;99.90;;;;;;4887667;29;20190;-86
2021/10/01 14:49:38;;;;;;;6.30;3.65;;;13.60;99.90;;;;;;4897784;29;20217;-87
2021/10/01 14:52:04;;;;;;;4.40;3.55;;;13.50;99.90;;;;;;4895748;29;20599;-87